createdAt,value
2022-09-07T00:00:17.359Z,19.85
2022-09-07T00:05:19.489Z,16.00
2022-09-07T00:10:23.244Z,15.02
2022-09-07T00:15:25.162Z,22.23
2022-09-07T00:20:27.115Z,17.35
2022-09-07T00:25:31.796Z,17.77
2022-09-07T00:30:34.732Z,14.57
2022-09-07T00:35:43.163Z,16.25
2022-09-07T00:40:45.094Z,19.48
2022-09-07T00:45:46.935Z,15.02
2022-09-07T00:50:56.106Z,21.02
2022-09-07T00:56:00.355Z,19.38
2022-09-07T01:01:07.111Z,15.23
2022-09-07T01:06:13.747Z,14.80
2022-09-07T01:11:17.237Z,18.73
2022-09-07T01:16:28.145Z,14.75
2022-09-07T01:21:45.088Z,12.73
2022-09-07T01:26:50.182Z,13.52
2022-09-07T01:32:25.213Z,13.38
2022-09-07T01:37:39.924Z,13.73
2022-09-07T01:42:54.631Z,11.93
2022-09-07T01:48:01.347Z,22.33
2022-09-07T01:53:15.554Z,16.48
2022-09-07T01:58:29.727Z,15.00
2022-09-07T02:03:37.568Z,14.15
2022-09-07T02:08:39.830Z,15.15
2022-09-07T02:14:05.755Z,13.25
2022-09-07T02:19:16.943Z,15.52
2022-09-07T02:24:24.997Z,14.10
2022-09-07T02:29:30.797Z,13.18
2022-09-07T02:34:33.386Z,12.60
2022-09-07T02:39:35.599Z,14.65
2022-09-07T02:44:40.553Z,15.52
2022-09-07T02:50:07.870Z,17.40
2022-09-07T02:55:24.642Z,14.82
2022-09-07T03:00:32.085Z,23.45
2022-09-07T03:05:42.863Z,14.88
2022-09-07T03:10:45.176Z,14.65
2022-09-07T03:15:47.167Z,14.07
2022-09-07T03:20:49.179Z,13.60
2022-09-07T03:25:51.417Z,13.55
2022-09-07T03:30:53.364Z,15.65
2022-09-07T03:36:01.318Z,16.40
2022-09-07T03:41:06.259Z,17.77
2022-09-07T03:46:10.625Z,15.48
2022-09-07T03:51:13.981Z,15.50
2022-09-07T03:56:18.622Z,15.50
2022-09-07T04:01:24.042Z,22.20
2022-09-07T04:06:26.132Z,14.60
2022-09-07T04:11:28.191Z,17.33
2022-09-07T04:16:30.473Z,18.63
2022-09-07T04:21:34.281Z,18.08
2022-09-07T04:26:37.330Z,24.45
2022-09-07T04:31:40.157Z,19.98
2022-09-07T04:36:42.204Z,20.52
2022-09-07T04:41:44.209Z,20.58
2022-09-07T04:46:46.135Z,18.98
2022-09-07T04:51:48.127Z,19.65
2022-09-07T04:56:50.036Z,18.42
2022-09-07T05:01:52.033Z,18.67
2022-09-07T05:06:54.844Z,18.15
2022-09-07T05:11:57.191Z,18.05
2022-09-07T05:16:59.181Z,19.08
2022-09-07T05:22:01.195Z,20.08
2022-09-07T05:27:04.148Z,18.33
2022-09-07T05:32:06.072Z,19.45
2022-09-07T05:37:08.091Z,19.48
2022-09-07T05:42:10.082Z,20.60
2022-09-07T05:47:12.152Z,22.88
2022-09-07T05:52:14.455Z,25.15
2022-09-07T05:57:16.362Z,19.63
2022-09-07T06:02:18.471Z,25.08
2022-09-07T06:07:22.768Z,23.30
2022-09-07T06:12:25.756Z,22.30
2022-09-07T06:17:29.633Z,25.95
2022-09-07T06:22:31.576Z,25.02
2022-09-07T06:27:33.966Z,21.30
2022-09-07T06:37:44.082Z,27.77
2022-09-07T06:42:46.001Z,25.27
2022-09-07T06:47:54.117Z,25.88
2022-09-07T06:58:18.017Z,24.83
2022-09-07T07:03:20.767Z,30.65
2022-09-07T07:08:25.283Z,24.70
2022-09-07T07:13:27.580Z,27.48
2022-09-07T07:18:29.504Z,27.27
2022-09-07T07:23:32.090Z,26.35
2022-09-07T07:33:56.359Z,23.73
2022-09-07T07:44:05.076Z,21.88
2022-09-07T07:49:06.995Z,22.77
2022-09-07T07:54:08.877Z,23.35
2022-09-07T07:59:15.519Z,22.25
2022-09-07T08:04:17.827Z,23.08
2022-09-07T08:09:19.702Z,22.55
2022-09-07T08:14:22.048Z,18.88
2022-09-07T08:19:23.862Z,19.30
2022-09-07T08:24:25.833Z,19.42
2022-09-07T08:29:31.277Z,19.77
2022-09-07T08:34:37.231Z,22.38
2022-09-07T08:39:39.116Z,16.35
2022-09-07T08:44:52.409Z,20.40
2022-09-07T08:50:09.476Z,22.83
2022-09-07T08:55:14.439Z,16.67
2022-09-07T09:00:18.499Z,19.75
2022-09-07T09:05:38.379Z,13.65
2022-09-07T09:10:49.280Z,15.77
2022-09-07T09:16:14.453Z,17.52
2022-09-07T09:21:18.850Z,14.68
2022-09-07T09:26:28.952Z,14.60
2022-09-07T09:31:36.283Z,13.02
2022-09-07T09:36:55.030Z,9.50
2022-09-07T09:42:00.823Z,10.20
2022-09-07T09:52:31.843Z,6.55
2022-09-07T10:08:37.217Z,10.80
2022-09-07T10:13:53.218Z,9.43
2022-09-07T10:18:57.135Z,10.18
2022-09-07T10:24:04.853Z,10.43
2022-09-07T10:29:22.730Z,9.70
2022-09-07T10:35:08.226Z,12.50
2022-09-07T10:40:28.406Z,10.55
2022-09-07T10:46:07.511Z,9.20
2022-09-07T10:51:16.533Z,11.23
2022-09-07T10:56:35.696Z,10.77
2022-09-07T11:01:56.290Z,12.57
2022-09-07T11:12:30.345Z,13.65
2022-09-07T11:17:53.340Z,8.70
2022-09-07T11:23:15.524Z,13.35
2022-09-07T11:28:29.192Z,9.45
2022-09-07T11:39:28.495Z,10.98
2022-09-07T11:44:54.089Z,10.70
2022-09-07T11:49:59.314Z,6.75
2022-09-07T11:55:08.032Z,10.00
2022-09-07T12:00:23.907Z,11.02
2022-09-07T12:05:59.382Z,6.20
2022-09-07T12:11:39.870Z,9.00
2022-09-07T12:17:06.469Z,8.87
2022-09-07T12:22:22.105Z,12.65
2022-09-07T12:27:23.882Z,13.60
2022-09-07T12:32:56.087Z,12.70
2022-09-07T12:38:24.683Z,8.93
2022-09-07T12:43:44.472Z,9.63
2022-09-07T12:49:05.149Z,15.87
2022-09-07T12:59:38.422Z,14.52
2022-09-07T13:04:52.788Z,13.80
2022-09-07T13:10:04.737Z,11.75
2022-09-07T13:15:06.986Z,12.15
2022-09-07T13:20:21.611Z,11.55
2022-09-07T13:25:26.388Z,17.25
2022-09-07T13:30:44.958Z,23.70
2022-09-07T13:35:48.306Z,18.08
2022-09-07T13:40:52.585Z,5.55
2022-09-07T13:45:54.435Z,7.38
2022-09-07T13:51:14.229Z,8.90
2022-09-07T13:56:30.806Z,6.20
2022-09-07T14:01:33.084Z,9.95
2022-09-07T14:06:38.877Z,15.60
2022-09-07T14:11:57.082Z,13.73
2022-09-07T14:17:04.624Z,14.45
2022-09-07T14:22:12.677Z,20.17
2022-09-07T14:27:35.622Z,15.70
2022-09-07T14:32:38.096Z,26.63
2022-09-07T14:37:40.489Z,18.10
2022-09-07T14:42:42.870Z,14.20
2022-09-07T14:47:45.964Z,12.43
2022-09-07T14:58:15.721Z,10.05
2022-09-07T15:03:27.422Z,9.65
2022-09-07T15:08:47.083Z,9.52
2022-09-07T15:14:11.837Z,14.02
2022-09-07T15:19:16.604Z,19.58
2022-09-07T15:24:18.690Z,18.48
2022-09-07T15:29:22.164Z,16.95
2022-09-07T15:34:24.634Z,21.75
2022-09-07T15:39:29.938Z,19.70
2022-09-07T15:44:32.582Z,20.90
2022-09-07T15:49:35.086Z,21.98
2022-09-07T15:54:39.830Z,23.65
2022-09-07T15:59:41.808Z,22.15
2022-09-07T16:04:43.797Z,21.73
2022-09-07T16:09:45.661Z,22.20
2022-09-07T16:14:47.663Z,20.70
2022-09-07T16:19:49.494Z,13.13
2022-09-07T16:24:52.687Z,13.40
2022-09-07T16:29:54.498Z,10.38
2022-09-07T16:34:56.975Z,11.85
2022-09-07T16:39:59.663Z,16.50
2022-09-07T16:50:23.541Z,8.95
2022-09-07T16:55:25.581Z,16.20
2022-09-07T17:00:31.308Z,14.40
2022-09-07T17:05:40.497Z,15.15
2022-09-07T17:10:42.299Z,17.58
2022-09-07T17:15:44.108Z,13.77
2022-09-07T17:20:58.734Z,11.40
2022-09-07T17:26:12.081Z,13.55
2022-09-07T17:36:51.310Z,14.32
2022-09-07T17:41:54.546Z,17.83
2022-09-07T17:46:56.437Z,16.65
2022-09-07T17:52:00.330Z,12.98
2022-09-07T17:57:03.186Z,13.18
2022-09-07T18:02:06.272Z,16.83
2022-09-07T18:07:08.987Z,14.43
2022-09-07T18:12:11.332Z,13.73
2022-09-07T18:17:13.637Z,9.73
2022-09-07T18:22:15.767Z,15.68
2022-09-07T18:27:18.115Z,12.43
2022-09-07T18:32:20.046Z,18.45
2022-09-07T18:37:21.900Z,14.43
2022-09-07T18:42:23.952Z,14.60
2022-09-07T18:47:29.078Z,15.55
2022-09-07T18:57:53.549Z,14.98
2022-09-07T19:02:55.719Z,13.35
2022-09-07T19:07:59.639Z,15.27
2022-09-07T19:13:02.806Z,13.13
2022-09-07T19:18:05.786Z,14.00
2022-09-07T19:23:07.676Z,12.63
2022-09-07T19:28:09.531Z,16.60
2022-09-07T19:33:12.528Z,14.55
2022-09-07T19:38:14.459Z,16.95
2022-09-07T19:43:18.007Z,13.60
2022-09-07T19:48:20.565Z,17.90
2022-09-07T19:53:23.021Z,18.38
2022-09-07T19:58:24.823Z,14.95
2022-09-07T20:03:26.857Z,20.58
2022-09-07T20:08:32.513Z,22.92
2022-09-07T20:13:36.855Z,17.98
2022-09-07T20:18:39.257Z,16.42
2022-09-07T20:23:41.810Z,21.08
2022-09-07T20:28:44.613Z,12.93
2022-09-07T20:33:47.963Z,16.23
2022-09-07T20:38:53.410Z,16.13
2022-09-07T20:43:56.859Z,18.45
2022-09-07T20:48:59.204Z,12.55
2022-09-07T20:54:01.183Z,12.30
2022-09-07T20:59:04.056Z,19.13
2022-09-07T21:04:06.417Z,15.52
2022-09-07T21:09:08.391Z,16.67
2022-09-07T21:14:13.578Z,17.95
2022-09-07T21:19:15.821Z,16.95
2022-09-07T21:24:21.945Z,13.73
2022-09-07T21:29:25.761Z,12.52
2022-09-07T21:34:27.648Z,14.13
2022-09-07T21:39:29.549Z,11.55
2022-09-07T21:44:31.427Z,11.63
2022-09-07T21:49:33.247Z,9.82
2022-09-07T21:54:35.056Z,11.73
2022-09-07T21:59:37.279Z,11.32
2022-09-07T22:04:39.105Z,11.10
2022-09-07T22:09:40.844Z,13.52
2022-09-07T22:14:43.997Z,15.60
2022-09-07T22:19:45.862Z,13.88
2022-09-07T22:24:47.789Z,16.23
2022-09-07T22:29:49.540Z,13.23
2022-09-07T22:34:51.733Z,16.05
2022-09-07T22:39:54.069Z,17.85
2022-09-07T22:44:55.955Z,16.00
2022-09-07T22:49:57.756Z,16.23
2022-09-07T22:54:59.554Z,17.88
2022-09-07T23:00:01.370Z,12.50
2022-09-07T23:05:04.203Z,15.05
2022-09-07T23:10:06.750Z,17.88
2022-09-07T23:15:08.941Z,15.27
2022-09-07T23:20:10.761Z,13.65
2022-09-07T23:25:13.132Z,13.40
2022-09-07T23:30:15.021Z,15.23
2022-09-07T23:35:16.885Z,20.48
2022-09-07T23:40:19.280Z,16.35
2022-09-07T23:45:21.085Z,17.85
2022-09-07T23:50:22.904Z,13.82
2022-09-07T23:55:24.785Z,13.40
